Time;durP1;ratioP1;P1;durP2;ratioP2;P2;SDS_P1;SDS_P2;PMS_P1;PMS_P2;Temp;Humidity;BMP_temperature;BMP_pressure;BME280_temperature;BME280_humidity;BME280_pressure;Samples;Min_cycle;Max_cycle;Signal;HPM_P1;HPM_P2
2022/05/20 02:32:37;;;;;;;;;;;;;;;;;;6186468;23;20242;-64
2022/05/20 03:36:16;;;;;;;;;;;;;;;;;;6186439;23;19909;-64
2022/05/20 03:38:42;;;;;;;;;;;;;;;;;;6181518;23;19944;-64
2022/05/20 03:41:08;;;;;;;;;;;;;;;;;;6181310;23;19904;-63
2022/05/20 03:43:33;;;;;;;;;;;;;;;;;;6182169;23;19900;-64
2022/05/20 03:46:00;;;;;;;;;;;;;;;;;;6181823;23;19955;-64
2022/05/20 03:48:25;;;;;;;;;;;;;;;;;;6180215;23;19900;-63
2022/05/20 03:50:51;;;;;;;;;;;;;;;;;;6181607;23;19996;-64
2022/05/20 03:53:17;;;;;;;;;;;;;;;;;;6182082;23;20225;-64
2022/05/20 03:55:43;;;;;;;;;;;;;;;;;;6182058;23;19915;-64
2022/05/20 03:58:09;;;;;;;;;;;;;;;;;;6181208;23;19987;-63
2022/05/20 04:03:20;;;;;;;;;;;;;;;;;;6181185;23;19907;-64
2022/05/20 04:05:45;;;;;;;;;;;;;;;;;;6181873;23;20238;-65
2022/05/20 04:08:13;;;;;;;;;;;;;;;;;;6181129;23;19904;-64
2022/05/20 04:10:39;;;;;;;;;;;;;;;;;;6180568;23;19931;-64
2022/05/20 04:13:05;;;;;;;;;;;;;;;;;;6182108;23;20303;-64
2022/05/20 04:15:31;;;;;;;;;;;;;;;;;;6182301;23;19907;-64
2022/05/20 04:20:42;;;;;;;;;;;;;;;;;;6193651;23;19922;-70
2022/05/20 04:23:08;;;;;;;;;;;;;;;;;;6185776;23;19900;-70
2022/05/20 04:25:33;;;;;;;;;;;;;;;;;;6212187;23;20222;-70
2022/05/20 04:27:59;;;;;;;;;;;;;;;;;;6210760;23;19907;-70
2022/05/20 04:30:25;;;;;;;;;;;;;;;;;;6211022;23;19946;-70
2022/05/20 04:32:51;;;;;;;;;;;;;;;;;;6211260;23;19908;-70
2022/05/20 04:35:17;;;;;;;;;;;;;;;;;;6211236;23;19904;-70
2022/05/20 04:37:43;;;;;;;;;;;;;;;;;;6213161;23;20025;-70
2022/05/20 04:40:09;;;;;;;;;;;;;;;;;;6213464;23;19904;-70
2022/05/20 04:48:04;;;;;;;;;;;;;;;;;;6213792;23;20320;-70
2022/05/20 04:50:30;;;;;;;;;;;;;;;;;;6187214;23;19998;-70
2022/05/20 04:52:56;;;;;;;;;;;;;;;;;;6187209;23;19927;-70
2022/05/20 04:55:22;;;;;;;;;;;;;;;;;;6186077;23;20038;-72
2022/05/20 04:57:48;;;;;;;;;;;;;;;;;;6214584;23;20116;-70
2022/05/20 05:00:14;;;;;;;;;;;;;;;;;;6214876;23;19910;-70
2022/05/20 05:02:40;;;;;;;;;;;;;;;;;;6215017;23;20234;-70
2022/05/20 05:05:06;;;;;;;;;;;;;;;;;;6188732;23;19982;-70
2022/05/20 05:07:35;;;;;;;;;;;;;;;;;;6186991;23;19935;-69
2022/05/20 05:48:46;;;;;;;;;;;;;;;;;;6214814;23;20372;-70
2022/05/20 05:51:12;;;;;;;;;;;;;;;;;;6212751;23;19908;-70
2022/05/20 05:53:41;;;;;;;;;;;;;;;;;;6186993;23;20200;-71
2022/05/20 05:56:09;;;;;;;;;;;;;;;;;;6187078;23;19922;-70
2022/05/20 06:09:36;;;;;;;;;;;;;;;;;;6214291;23;19951;-71
2022/05/20 06:12:02;;;;;;;;;;;;;;;;;;6213190;23;19904;-70
2022/05/20 06:14:28;;;;;;;;;;;;;;;;;;6212142;23;19908;-71
2022/05/20 06:16:54;;;;;;;;;;;;;;;;;;6213214;23;19900;-71
2022/05/20 06:19:20;;;;;;;;;;;;;;;;;;6186505;23;19969;-70
2022/05/20 06:21:49;;;;;;;;;;;;;;;;;;6186138;23;19981;-70
2022/05/20 06:24:15;;;;;;;;;;;;;;;;;;6210600;23;19912;-71
2022/05/20 06:26:41;;;;;;;;;;;;;;;;;;6213232;23;19900;-71
2022/05/20 06:29:10;;;;;;;;;;;;;;;;;;6185881;23;19900;-71
2022/05/20 06:31:36;;;;;;;;;;;;;;;;;;6213306;23;20349;-71
2022/05/20 06:34:02;;;;;;;;;;;;;;;;;;6187235;23;19899;-71
2022/05/20 06:42:14;;;;;;;;;;;;;;;;;;6150609;23;19904;-71
2022/05/20 06:44:40;;;;;;;;;;;;;;;;;;6124561;23;19991;-71
2022/05/20 06:47:06;;;;;;;;;;;;;;;;;;6149270;23;20403;-71
2022/05/20 06:49:31;;;;;;;;;;;;;;;;;;6148447;23;19904;-71
2022/05/20 06:52:00;;;;;;;;;;;;;;;;;;6148545;23;20355;-71
2022/05/20 06:54:26;;;;;;;;;;;;;;;;;;6150251;23;19924;-71
2022/05/20 06:56:52;;;;;;;;;;;;;;;;;;6124030;23;19901;-72
2022/05/20 06:59:18;;;;;;;;;;;;;;;;;;6148869;23;19924;-71
2022/05/20 07:01:44;;;;;;;;;;;;;;;;;;6149299;23;19905;-71
2022/05/20 07:04:10;;;;;;;;;;;;;;;;;;6149842;23;19896;-71
2022/05/20 07:06:36;;;;;;;;;;;;;;;;;;6148744;23;20208;-71
2022/05/20 07:09:02;;;;;;;;;;;;;;;;;;6148744;23;19904;-71
2022/05/20 07:11:28;;;;;;;;;;;;;;;;;;6149925;23;19904;-71
2022/05/20 07:13:55;;;;;;;;;;;;;;;;;;6125414;23;19936;-71
2022/05/20 07:16:21;;;;;;;;;;;;;;;;;;6158681;23;20314;-71
2022/05/20 07:18:47;;;;;;;;;;;;;;;;;;6212137;23;19962;-72
2022/05/20 07:21:13;;;;;;;;;;;;;;;;;;6211709;23;19907;-71
2022/05/20 07:23:39;;;;;;;;;;;;;;;;;;6211515;23;19912;-71
2022/05/20 07:26:05;;;;;;;;;;;;;;;;;;6212620;23;19900;-71
2022/05/20 07:28:31;;;;;;;;;;;;;;;;;;6211251;23;19900;-71
2022/05/20 07:30:58;;;;;;;;;;;;;;;;;;6211370;23;19912;-71
2022/05/20 07:33:23;;;;;;;;;;;;;;;;;;6212100;23;19899;-71
2022/05/20 07:35:49;;;;;;;;;;;;;;;;;;6211409;23;19906;-71
2022/05/20 07:38:15;;;;;;;;;;;;;;;;;;6211607;23;19907;-71
2022/05/20 07:40:43;;;;;;;;;;;;;;;;;;6212823;23;19920;-71
2022/05/20 07:43:08;;;;;;;;;;;;;;;;;;6211965;23;19934;-71
2022/05/20 07:45:34;;;;;;;;;;;;;;;;;;6212464;23;19922;-71
2022/05/20 07:48:00;;;;;;;;;;;;;;;;;;6212056;23;19900;-72
2022/05/20 07:50:26;;;;;;;;;;;;;;;;;;6210886;23;19915;-71
2022/05/20 07:55:37;;;;;;;;;;;;;;;;;;6212808;23;19923;-71
2022/05/20 07:58:03;;;;;;;;;;;;;;;;;;6184821;23;20230;-71
2022/05/20 08:00:29;;;;;;;;;;;;;;;;;;6185741;23;19904;-71
2022/05/20 08:02:55;;;;;;;;;;;;;;;;;;6211779;23;20364;-72
2022/05/20 08:05:21;;;;;;;;;;;;;;;;;;6212850;23;19931;-71
2022/05/20 08:07:46;;;;;;;;;;;;;;;;;;6211627;23;19900;-71
2022/05/20 08:10:12;;;;;;;;;;;;;;;;;;6211793;23;19907;-71
2022/05/20 08:12:38;;;;;;;;;;;;;;;;;;6213456;23;19970;-71
2022/05/20 08:15:04;;;;;;;;;;;;;;;;;;6214255;23;20311;-71
2022/05/20 08:17:33;;;;;;;;;;;;;;;;;;6213541;23;19904;-71
2022/05/20 08:19:59;;;;;;;;;;;;;;;;;;6187444;23;20318;-71
2022/05/20 08:22:25;;;;;;;;;;;;;;;;;;6214044;23;19974;-71
2022/05/20 08:24:52;;;;;;;;;;;;;;;;;;6212774;23;20174;-71
2022/05/20 08:27:18;;;;;;;;;;;;;;;;;;6213920;23;20117;-71
2022/05/20 08:29:44;;;;;;;;;;;;;;;;;;6212750;23;19907;-71
2022/05/20 08:32:10;;;;;;;;;;;;;;;;;;6213745;23;19903;-71
2022/05/20 08:34:36;;;;;;;;;;;;;;;;;;6213608;23;20321;-71
2022/05/20 08:37:01;;;;;;;;;;;;;;;;;;6187194;23;19935;-71
2022/05/20 08:39:27;;;;;;;;;;;;;;;;;;6212929;23;20070;-70
2022/05/20 08:41:53;;;;;;;;;;;;;;;;;;6214340;23;20247;-71
2022/05/20 08:44:19;;;;;;;;;;;;;;;;;;6213553;23;19904;-71
2022/05/20 08:46:45;;;;;;;;;;;;;;;;;;6214245;23;19954;-71
2022/05/20 08:49:11;;;;;;;;;;;;;;;;;;6213266;23;19900;-71
2022/05/20 08:51:39;;;;;;;;;;;;;;;;;;6214645;23;19903;-71
2022/05/20 08:54:05;;;;;;;;;;;;;;;;;;6213996;23;19927;-71
2022/05/20 08:56:31;;;;;;;;;;;;;;;;;;6214340;23;19923;-71
2022/05/20 08:58:58;;;;;;;;;;;;;;;;;;6212378;23;19931;-72
2022/05/20 09:01:24;;;;;;;;;;;;;;;;;;6213163;23;19974;-71
2022/05/20 09:03:50;;;;;;;;;;;;;;;;;;6213493;23;20306;-71
2022/05/20 09:06:16;;;;;;;;;;;;;;;;;;6186818;23;19900;-70
2022/05/20 09:08:42;;;;;;;;;;;;;;;;;;6186214;23;20306;-70
2022/05/20 09:11:07;;;;;;;;;;;;;;;;;;6212987;23;19994;-70
2022/05/20 09:16:18;;;;;;;;;;;;;;;;;;6213906;23;19906;-71
2022/05/20 09:18:44;;;;;;;;;;;;;;;;;;6213165;23;19900;-71
2022/05/20 09:21:10;;;;;;;;;;;;;;;;;;6213736;23;19900;-71
2022/05/20 09:23:36;;;;;;;;;;;;;;;;;;6186242;23;19954;-71
2022/05/20 09:26:02;;;;;;;;;;;;;;;;;;6186644;23;19899;-71
2022/05/20 09:28:28;;;;;;;;;;;;;;;;;;6186461;23;19911;-71
2022/05/20 09:30:53;;;;;;;;;;;;;;;;;;6213809;23;19908;-72
2022/05/20 09:33:20;;;;;;;;;;;;;;;;;;6212852;23;19911;-71
2022/05/20 09:35:46;;;;;;;;;;;;;;;;;;6213402;23;19900;-71
2022/05/20 09:38:11;;;;;;;;;;;;;;;;;;6212650;23;19911;-71
2022/05/20 09:40:38;;;;;;;;;;;;;;;;;;6212606;23;19932;-71
2022/05/20 09:43:04;;;;;;;;;;;;;;;;;;6212846;23;19923;-71
2022/05/20 09:45:30;;;;;;;;;;;;;;;;;;6186442;23;19936;-71
2022/05/20 09:47:56;;;;;;;;;;;;;;;;;;6185922;23;19975;-71
2022/05/20 09:50:22;;;;;;;;;;;;;;;;;;6212494;23;19908;-71
2022/05/20 09:52:47;;;;;;;;;;;;;;;;;;6212687;23;20276;-71
2022/05/20 09:55:13;;;;;;;;;;;;;;;;;;6186210;23;19900;-71
2022/05/20 09:57:39;;;;;;;;;;;;;;;;;;6212806;23;19903;-70
2022/05/20 10:00:05;;;;;;;;;;;;;;;;;;6212406;23;19907;-71
2022/05/20 10:02:31;;;;;;;;;;;;;;;;;;6213369;23;19900;-71
2022/05/20 10:04:57;;;;;;;;;;;;;;;;;;6212639;23;19904;-71
2022/05/20 10:07:23;;;;;;;;;;;;;;;;;;6186298;23;19950;-71
2022/05/20 10:09:49;;;;;;;;;;;;;;;;;;6182799;23;20322;-71
2022/05/20 10:12:15;;;;;;;;;;;;;;;;;;6213993;23;19903;-71
2022/05/20 10:14:41;;;;;;;;;;;;;;;;;;6185643;23;19923;-71
2022/05/20 10:17:06;;;;;;;;;;;;;;;;;;6212624;23;20310;-71
2022/05/20 10:19:32;;;;;;;;;;;;;;;;;;6185291;23;19903;-70
2022/05/20 10:21:58;;;;;;;;;;;;;;;;;;6186164;23;19900;-71
2022/05/20 10:24:24;;;;;;;;;;;;;;;;;;6212454;23;20084;-71
2022/05/20 10:26:50;;;;;;;;;;;;;;;;;;6186892;23;20334;-71
2022/05/20 10:34:45;;;;;;;;;;;;;;;;;;6212410;23;20330;-71
2022/05/20 10:37:11;;;;;;;;;;;;;;;;;;6186395;23;19900;-71
2022/05/20 10:39:37;;;;;;;;;;;;;;;;;;6211619;23;19900;-70
2022/05/20 10:42:03;;;;;;;;;;;;;;;;;;6212480;23;20372;-71
2022/05/20 10:49:58;;;;;;;;;;;;;;;;;;6211916;23;19914;-70
2022/05/20 10:52:24;;;;;;;;;;;;;;;;;;6185741;23;19990;-71
2022/05/20 10:54:50;;;;;;;;;;;;;;;;;;6185015;23;19942;-70
2022/05/20 10:57:16;;;;;;;;;;;;;;;;;;6186250;23;19906;-70
2022/05/20 10:59:42;;;;;;;;;;;;;;;;;;6211903;23;20364;-70
2022/05/20 11:02:08;;;;;;;;;;;;;;;;;;6185631;23;20196;-70
2022/05/20 11:04:34;;;;;;;;;;;;;;;;;;6212298;23;19943;-70
2022/05/20 11:07:00;;;;;;;;;;;;;;;;;;6185440;23;19928;-71
2022/05/20 11:09:26;;;;;;;;;;;;;;;;;;6211403;23;19919;-70
2022/05/20 11:11:52;;;;;;;;;;;;;;;;;;6212770;23;19899;-71
2022/05/20 11:14:18;;;;;;;;;;;;;;;;;;6186016;23;19900;-70
2022/05/20 11:16:44;;;;;;;;;;;;;;;;;;6211660;23;19907;-71
2022/05/20 11:19:10;;;;;;;;;;;;;;;;;;6213423;23;19922;-70
2022/05/20 11:21:36;;;;;;;;;;;;;;;;;;6215185;23;19907;-70
2022/05/20 11:24:02;;;;;;;;;;;;;;;;;;6213062;23;20318;-70
2022/05/20 11:26:28;;;;;;;;;;;;;;;;;;6185743;23;19900;-70
2022/05/20 11:28:54;;;;;;;;;;;;;;;;;;6212471;23;19906;-71
2022/05/20 11:31:20;;;;;;;;;;;;;;;;;;6212399;23;20302;-70
2022/05/20 11:33:47;;;;;;;;;;;;;;;;;;6212479;23;19903;-70
2022/05/20 11:36:15;;;;;;;;;;;;;;;;;;6212083;23;19900;-71
2022/05/20 11:38:41;;;;;;;;;;;;;;;;;;6212122;23;19900;-71
2022/05/20 11:41:07;;;;;;;;;;;;;;;;;;6212742;23;19899;-70
2022/05/20 11:43:33;;;;;;;;;;;;;;;;;;6212132;23;20261;-70
2022/05/20 11:45:59;;;;;;;;;;;;;;;;;;6211658;23;20250;-70
2022/05/20 11:48:25;;;;;;;;;;;;;;;;;;6211455;23;19904;-70
2022/05/20 11:50:51;;;;;;;;;;;;;;;;;;6211308;23;19914;-70
2022/05/20 11:53:17;;;;;;;;;;;;;;;;;;6212393;23;19983;-70
2022/05/20 11:55:44;;;;;;;;;;;;;;;;;;6211836;23;19990;-70
2022/05/20 11:58:11;;;;;;;;;;;;;;;;;;6212009;23;19904;-70
2022/05/20 12:00:37;;;;;;;;;;;;;;;;;;6211991;23;19907;-70
2022/05/20 12:03:02;;;;;;;;;;;;;;;;;;6212046;23;19900;-70
2022/05/20 12:05:29;;;;;;;;;;;;;;;;;;6211406;23;19907;-70
2022/05/20 12:07:55;;;;;;;;;;;;;;;;;;6211758;23;19904;-70
2022/05/20 12:10:21;;;;;;;;;;;;;;;;;;6210995;23;19962;-70
2022/05/20 12:12:47;;;;;;;;;;;;;;;;;;6212365;23;19900;-70
2022/05/20 12:15:13;;;;;;;;;;;;;;;;;;6212137;23;19900;-70
2022/05/20 12:17:39;;;;;;;;;;;;;;;;;;6212365;23;20234;-70
2022/05/20 12:28:18;;;;;;;;;;;;;;;;;;6234353;23;19922;-64
2022/05/20 12:30:44;;;;;;;;;;;;;;;;;;6240932;23;19912;-63
2022/05/20 12:33:10;;;;;;;;;;;;;;;;;;6241315;23;20337;-63
2022/05/20 12:35:36;;;;;;;;;;;;;;;;;;6241885;23;19941;-63
2022/05/20 12:38:02;;;;;;;;;;;;;;;;;;6240606;23;20374;-63
2022/05/20 12:40:28;;;;;;;;;;;;;;;;;;6241203;23;19938;-63
2022/05/20 12:42:57;;;;;;;;;;;;;;;;;;6240889;23;20280;-63
2022/05/20 12:45:22;;;;;;;;;;;;;;;;;;6242183;23;20237;-63
2022/05/20 12:47:51;;;;;;;;;;;;;;;;;;6241929;23;19907;-63
2022/05/20 12:50:17;;;;;;;;;;;;;;;;;;6241118;23;19908;-63
2022/05/20 12:52:43;;;;;;;;;;;;;;;;;;6242056;23;20363;-63
2022/05/20 12:55:09;;;;;;;;;;;;;;;;;;6241169;23;19900;-63
2022/05/20 12:57:35;;;;;;;;;;;;;;;;;;6241756;23;20357;-63
2022/05/20 13:00:02;;;;;;;;;;;;;;;;;;6241739;23;19906;-63
2022/05/20 13:02:28;;;;;;;;;;;;;;;;;;6244096;23;19934;-63
2022/05/20 13:04:54;;;;;;;;;;;;;;;;;;6243375;23;19899;-63
2022/05/20 13:07:20;;;;;;;;;;;;;;;;;;6243765;23;20329;-63
2022/05/20 13:09:46;;;;;;;;;;;;;;;;;;6242353;23;20285;-63
2022/05/20 13:12:18;;;;;;;;;;;;;;;;;;6243698;23;20237;-63
2022/05/20 13:14:44;;;;;;;;;;;;;;;;;;6243500;23;19906;-63
2022/05/20 13:17:10;;;;;;;;;;;;;;;;;;6243428;23;19939;-65
2022/05/20 13:19:35;;;;;;;;;;;;;;;;;;6243460;23;20270;-64
2022/05/20 13:22:02;;;;;;;;;;;;;;;;;;6244208;23;19900;-64
2022/05/20 13:24:28;;;;;;;;;;;;;;;;;;6243073;23;19899;-65
2022/05/20 13:26:55;;;;;;;;;;;;;;;;;;6242207;23;19915;-64
2022/05/20 13:29:21;;;;;;;;;;;;;;;;;;6243435;23;20317;-63
2022/05/20 13:31:47;;;;;;;;;;;;;;;;;;6243767;23;19903;-64
2022/05/20 13:34:13;;;;;;;;;;;;;;;;;;6242424;23;19940;-65
2022/05/20 13:36:39;;;;;;;;;;;;;;;;;;6243630;23;20233;-64
2022/05/20 13:39:05;;;;;;;;;;;;;;;;;;6242986;23;19946;-65
2022/05/20 13:41:30;;;;;;;;;;;;;;;;;;6242213;23;20321;-64
2022/05/20 13:43:56;;;;;;;;;;;;;;;;;;6243575;23;19906;-64
2022/05/20 13:49:13;;;;;;;;;;;;;;;;;;6242524;23;19907;-65
2022/05/20 13:51:40;;;;;;;;;;;;;;;;;;6242754;23;19907;-64
2022/05/20 13:54:05;;;;;;;;;;;;;;;;;;6243594;23;19907;-64
2022/05/20 13:56:31;;;;;;;;;;;;;;;;;;6242939;23;20306;-64
2022/05/20 13:58:57;;;;;;;;;;;;;;;;;;6242448;23;19957;-65
2022/05/20 14:01:23;;;;;;;;;;;;;;;;;;6243054;23;20353;-64
2022/05/20 14:03:49;;;;;;;;;;;;;;;;;;6243521;23;19945;-64
2022/05/20 14:06:15;;;;;;;;;;;;;;;;;;6243225;23;19906;-65
2022/05/20 14:08:41;;;;;;;;;;;;;;;;;;6241942;23;19910;-64
2022/05/20 14:11:07;;;;;;;;;;;;;;;;;;6242071;23;19907;-64
2022/05/20 14:13:32;;;;;;;;;;;;;;;;;;6243515;23;20245;-64
2022/05/20 14:15:58;;;;;;;;;;;;;;;;;;6243579;23;19899;-65
2022/05/20 14:18:24;;;;;;;;;;;;;;;;;;6242686;23;19899;-64
2022/05/20 14:20:50;;;;;;;;;;;;;;;;;;6242725;23;20292;-64
2022/05/20 14:23:16;;;;;;;;;;;;;;;;;;6243014;23;19914;-65
2022/05/20 14:25:42;;;;;;;;;;;;;;;;;;6241985;23;19900;-64
2022/05/20 14:28:08;;;;;;;;;;;;;;;;;;6241740;23;19914;-65
2022/05/20 14:30:34;;;;;;;;;;;;;;;;;;6241504;23;19908;-65
2022/05/20 14:33:00;;;;;;;;;;;;;;;;;;6242765;23;19903;-66
2022/05/20 14:35:26;;;;;;;;;;;;;;;;;;6241453;23;19982;-66
2022/05/20 14:37:52;;;;;;;;;;;;;;;;;;6242896;23;20449;-66
2022/05/20 14:40:18;;;;;;;;;;;;;;;;;;6241469;23;20376;-66
2022/05/20 14:42:44;;;;;;;;;;;;;;;;;;6242248;23;19938;-66
2022/05/20 14:45:10;;;;;;;;;;;;;;;;;;6242395;23;19953;-65
2022/05/20 14:47:39;;;;;;;;;;;;;;;;;;6242259;23;19910;-66
2022/05/20 14:50:07;;;;;;;;;;;;;;;;;;6241177;23;19915;-66
2022/05/20 14:52:33;;;;;;;;;;;;;;;;;;6242153;23;19905;-65
2022/05/20 14:54:59;;;;;;;;;;;;;;;;;;6215280;23;20518;-65
2022/05/20 14:57:28;;;;;;;;;;;;;;;;;;6241336;23;20222;-66
2022/05/20 14:59:54;;;;;;;;;;;;;;;;;;6241861;23;19899;-67
2022/05/20 15:02:20;;;;;;;;;;;;;;;;;;6242300;23;19974;-65
2022/05/20 15:04:45;;;;;;;;;;;;;;;;;;6242391;23;19991;-65
2022/05/20 15:07:11;;;;;;;;;;;;;;;;;;6242394;23;19945;-65
2022/05/20 15:09:37;;;;;;;;;;;;;;;;;;6214695;23;19915;-65
2022/05/20 15:12:03;;;;;;;;;;;;;;;;;;6241669;23;19899;-65
2022/05/20 15:14:29;;;;;;;;;;;;;;;;;;6243037;23;19906;-66
2022/05/20 15:16:57;;;;;;;;;;;;;;;;;;6242199;23;20325;-65
2022/05/20 15:19:23;;;;;;;;;;;;;;;;;;6239859;23;19907;-66
2022/05/20 15:21:50;;;;;;;;;;;;;;;;;;6242337;23;20362;-65
2022/05/20 15:24:16;;;;;;;;;;;;;;;;;;6242015;23;20565;-65
2022/05/20 15:26:41;;;;;;;;;;;;;;;;;;6241218;23;19943;-65
2022/05/20 15:29:07;;;;;;;;;;;;;;;;;;6241022;23;19904;-65
2022/05/20 15:37:02;;;;;;;;;;;;;;;;;;6241769;23;19954;-65
2022/05/20 15:39:28;;;;;;;;;;;;;;;;;;6240362;23;19904;-65
2022/05/20 15:41:54;;;;;;;;;;;;;;;;;;6241038;23;19936;-65
2022/05/20 15:44:20;;;;;;;;;;;;;;;;;;6240952;23;19899;-66
2022/05/20 15:46:47;;;;;;;;;;;;;;;;;;6242115;23;19969;-65
2022/05/20 15:49:13;;;;;;;;;;;;;;;;;;6240893;23;19903;-65
2022/05/20 15:51:39;;;;;;;;;;;;;;;;;;6241218;23;20320;-65
2022/05/20 15:54:05;;;;;;;;;;;;;;;;;;6240689;23;19907;-65
2022/05/20 15:56:31;;;;;;;;;;;;;;;;;;6241399;23;20309;-65
2022/05/20 15:58:59;;;;;;;;;;;;;;;;;;6240747;23;19899;-65
2022/05/20 16:01:25;;;;;;;;;;;;;;;;;;6241461;23;20326;-65
2022/05/20 16:03:51;;;;;;;;;;;;;;;;;;6242759;23;19954;-65
2022/05/20 16:06:18;;;;;;;;;;;;;;;;;;6242729;23;19934;-65
2022/05/20 16:08:44;;;;;;;;;;;;;;;;;;6241928;23;19987;-65
2022/05/20 16:11:10;;;;;;;;;;;;;;;;;;6240119;23;19961;-65
2022/05/20 16:13:36;;;;;;;;;;;;;;;;;;6241199;23;20259;-65
2022/05/20 16:16:01;;;;;;;;;;;;;;;;;;6241952;23;19899;-66
2022/05/20 16:18:27;;;;;;;;;;;;;;;;;;6240424;23;19903;-65
2022/05/20 16:20:54;;;;;;;;;;;;;;;;;;6241714;23;19906;-66
2022/05/20 16:23:20;;;;;;;;;;;;;;;;;;6241875;23;19906;-65
2022/05/20 16:25:46;;;;;;;;;;;;;;;;;;6242416;23;19937;-65
2022/05/20 16:28:12;;;;;;;;;;;;;;;;;;6238959;23;20375;-65
2022/05/20 16:30:38;;;;;;;;;;;;;;;;;;6241757;23;19962;-65
2022/05/20 16:33:04;;;;;;;;;;;;;;;;;;6242159;23;19903;-65
2022/05/20 16:35:30;;;;;;;;;;;;;;;;;;6243656;23;20552;-65
2022/05/20 16:37:56;;;;;;;;;;;;;;;;;;6243100;23;19974;-65
2022/05/20 16:40:21;;;;;;;;;;;;;;;;;;6243035;23;19930;-65
2022/05/20 16:42:47;;;;;;;;;;;;;;;;;;6242595;23;20415;-65
2022/05/20 16:45:13;;;;;;;;;;;;;;;;;;6243518;23;19900;-65
2022/05/20 16:47:39;;;;;;;;;;;;;;;;;;6243409;23;20298;-65
2022/05/20 16:50:08;;;;;;;;;;;;;;;;;;6242668;23;19910;-65
2022/05/20 16:52:34;;;;;;;;;;;;;;;;;;6243673;23;19906;-65
2022/05/20 16:55:04;;;;;;;;;;;;;;;;;;6243235;23;19900;-66
2022/05/20 17:02:59;;;;;;;;;;;;;;;;;;6243127;23;19985;-65
2022/05/20 17:05:25;;;;;;;;;;;;;;;;;;6242961;23;19900;-66
2022/05/20 17:07:51;;;;;;;;;;;;;;;;;;6242903;23;19931;-65
2022/05/20 17:10:18;;;;;;;;;;;;;;;;;;6242118;23;19913;-65
2022/05/20 17:12:44;;;;;;;;;;;;;;;;;;6242151;23;19899;-65
2022/05/20 17:15:10;;;;;;;;;;;;;;;;;;6242830;23;19923;-65
2022/05/20 17:17:36;;;;;;;;;;;;;;;;;;6243224;23;19904;-65
2022/05/20 17:20:02;;;;;;;;;;;;;;;;;;6241774;23;19904;-66
2022/05/20 17:25:12;;;;;;;;;;;;;;;;;;6242881;23;19930;-65
2022/05/20 17:27:38;;;;;;;;;;;;;;;;;;6242284;23;20321;-65
2022/05/20 17:30:04;;;;;;;;;;;;;;;;;;6242280;23;19931;-65
2022/05/20 17:32:31;;;;;;;;;;;;;;;;;;6242918;23;20264;-65
2022/05/20 17:34:56;;;;;;;;;;;;;;;;;;6242838;23;19930;-65
2022/05/20 17:37:22;;;;;;;;;;;;;;;;;;6215753;23;19931;-65
2022/05/20 17:39:48;;;;;;;;;;;;;;;;;;6242135;23;19911;-65
2022/05/20 17:42:14;;;;;;;;;;;;;;;;;;6242089;23;19899;-65
2022/05/20 17:44:40;;;;;;;;;;;;;;;;;;6242868;23;20318;-65
2022/05/20 17:47:06;;;;;;;;;;;;;;;;;;6242364;23;19904;-65
2022/05/20 17:49:34;;;;;;;;;;;;;;;;;;6241472;23;19991;-65
2022/05/20 17:52:00;;;;;;;;;;;;;;;;;;6242935;23;19910;-65
2022/05/20 17:54:26;;;;;;;;;;;;;;;;;;6243013;23;19904;-65
2022/05/20 17:56:52;;;;;;;;;;;;;;;;;;6242368;23;19899;-67
2022/05/20 17:59:17;;;;;;;;;;;;;;;;;;6241793;23;19900;-65
2022/05/20 18:01:43;;;;;;;;;;;;;;;;;;6242496;23;19899;-65
2022/05/20 18:04:11;;;;;;;;;;;;;;;;;;6243064;23;19903;-65
2022/05/20 18:06:37;;;;;;;;;;;;;;;;;;6242995;23;20317;-65
2022/05/20 18:09:03;;;;;;;;;;;;;;;;;;6242284;23;19946;-65
2022/05/20 18:11:29;;;;;;;;;;;;;;;;;;6241074;23;19957;-65
2022/05/20 18:13:55;;;;;;;;;;;;;;;;;;6240670;23;19903;-65
2022/05/20 18:16:21;;;;;;;;;;;;;;;;;;6240990;23;20316;-66
2022/05/20 18:18:47;;;;;;;;;;;;;;;;;;6240896;23;19900;-66
2022/05/20 18:21:13;;;;;;;;;;;;;;;;;;6240982;23;19899;-65
2022/05/20 18:23:38;;;;;;;;;;;;;;;;;;6241733;23;19906;-65
2022/05/20 18:26:04;;;;;;;;;;;;;;;;;;6240956;23;19903;-65
2022/05/20 18:28:30;;;;;;;;;;;;;;;;;;6240038;23;19919;-65
2022/05/20 18:30:56;;;;;;;;;;;;;;;;;;6240486;23;20244;-65
2022/05/20 18:33:22;;;;;;;;;;;;;;;;;;6241438;23;19954;-65
2022/05/20 18:41:17;;;;;;;;;;;;;;;;;;6244451;23;19946;-65
2022/05/20 18:43:43;;;;;;;;;;;;;;;;;;6242458;23;19899;-65
2022/05/20 18:46:09;;;;;;;;;;;;;;;;;;6243396;23;20202;-65
2022/05/20 18:48:36;;;;;;;;;;;;;;;;;;6241181;23;20284;-65
2022/05/20 18:51:02;;;;;;;;;;;;;;;;;;6241597;23;19915;-65
2022/05/20 18:53:28;;;;;;;;;;;;;;;;;;6241876;23;19900;-65
2022/05/20 18:55:57;;;;;;;;;;;;;;;;;;6240794;23;20233;-65
2022/05/20 18:58:23;;;;;;;;;;;;;;;;;;6238763;23;19900;-65
2022/05/20 19:00:48;;;;;;;;;;;;;;;;;;6214153;23;19900;-65
2022/05/20 19:06:02;;;;;;;;;;;;;;;;;;6245790;23;19922;-65
2022/05/20 19:08:28;;;;;;;;;;;;;;;;;;6217705;23;19973;-65
2022/05/20 19:10:54;;;;;;;;;;;;;;;;;;6244712;23;20293;-65
2022/05/20 19:13:20;;;;;;;;;;;;;;;;;;6243719;23;19906;-65
2022/05/20 19:15:46;;;;;;;;;;;;;;;;;;6243430;23;20001;-65
2022/05/20 19:18:12;;;;;;;;;;;;;;;;;;6240337;23;19900;-65
2022/05/20 19:20:38;;;;;;;;;;;;;;;;;;6241296;23;19906;-65
2022/05/20 19:23:04;;;;;;;;;;;;;;;;;;6240857;23;19901;-63
2022/05/20 19:25:30;;;;;;;;;;;;;;;;;;6240540;23;19953;-64
2022/05/20 19:27:56;;;;;;;;;;;;;;;;;;6241155;23;19916;-63
2022/05/20 19:30:23;;;;;;;;;;;;;;;;;;6241154;23;19908;-63
2022/05/20 19:32:50;;;;;;;;;;;;;;;;;;6215145;23;19899;-63
2022/05/20 19:35:17;;;;;;;;;;;;;;;;;;6239495;23;19904;-63
2022/05/20 19:37:46;;;;;;;;;;;;;;;;;;6215616;23;19981;-63
2022/05/20 19:40:12;;;;;;;;;;;;;;;;;;6214410;23;19912;-63
2022/05/20 19:42:38;;;;;;;;;;;;;;;;;;6241543;23;20333;-63
2022/05/20 19:45:04;;;;;;;;;;;;;;;;;;6214228;23;19906;-63
2022/05/20 19:47:30;;;;;;;;;;;;;;;;;;6215309;23;19973;-63
2022/05/20 19:49:56;;;;;;;;;;;;;;;;;;6241196;23;19908;-63
2022/05/20 19:52:22;;;;;;;;;;;;;;;;;;6215187;23;19899;-63
2022/05/20 19:54:48;;;;;;;;;;;;;;;;;;6215322;23;19931;-63
2022/05/20 20:02:43;;;;;;;;;;;;;;;;;;6242156;23;19907;-63
2022/05/20 20:05:12;;;;;;;;;;;;;;;;;;6215050;23;19900;-63
2022/05/20 20:07:55;;;;;;;;;;;;;;;;;;6241375;23;19903;-63
2022/05/20 20:10:21;;;;;;;;;;;;;;;;;;6241342;23;19941;-63
2022/05/20 20:12:47;;;;;;;;;;;;;;;;;;6242113;23;20379;-63
2022/05/20 20:15:13;;;;;;;;;;;;;;;;;;6241372;23;19979;-63
2022/05/20 20:17:39;;;;;;;;;;;;;;;;;;6241527;23;20419;-63
2022/05/20 20:20:07;;;;;;;;;;;;;;;;;;6240527;23;19904;-64
2022/05/20 20:28:02;;;;;;;;;;;;;;;;;;6239043;23;19914;-63
2022/05/20 20:30:28;;;;;;;;;;;;;;;;;;6238799;23;19907;-63
2022/05/20 20:32:53;;;;;;;;;;;;;;;;;;6213354;23;20310;-63
2022/05/20 20:35:19;;;;;;;;;;;;;;;;;;6241088;23;19900;-63
2022/05/20 20:37:47;;;;;;;;;;;;;;;;;;6240323;23;19915;-63
2022/05/20 20:40:13;;;;;;;;;;;;;;;;;;6240579;23;19934;-63
2022/05/20 20:42:40;;;;;;;;;;;;;;;;;;6241825;23;19929;-63
2022/05/20 20:45:06;;;;;;;;;;;;;;;;;;6240597;23;19978;-64
2022/05/20 20:47:32;;;;;;;;;;;;;;;;;;6214365;23;19900;-63
2022/05/20 20:49:58;;;;;;;;;;;;;;;;;;6240191;23;19903;-64
2022/05/20 20:52:24;;;;;;;;;;;;;;;;;;6214714;23;19934;-63
2022/05/20 20:54:50;;;;;;;;;;;;;;;;;;6241971;23;19978;-63
2022/05/20 20:57:18;;;;;;;;;;;;;;;;;;6241533;23;19907;-63
2022/05/20 20:59:44;;;;;;;;;;;;;;;;;;6239168;23;19978;-63
2022/05/20 21:02:10;;;;;;;;;;;;;;;;;;6241558;23;20356;-63
2022/05/20 21:04:45;;;;;;;;;;;;;;;;;;6214715;23;19910;-63
2022/05/20 21:21:13;;;;;;;;;;;;;;;;;;6120796;23;19908;-63
2022/05/20 21:23:39;;;;;;;;;;;;;;;;;;6120687;23;19901;-63
2022/05/20 21:48:05;;;;;;;;;;;;;;;;;;6242647;23;20384;-63
2022/05/20 21:51:02;;;;;;;;;;;;;;;;;;6181553;23;19943;-63
2022/05/20 21:53:28;;;;;;;;;;;;;;;;;;6178940;23;20337;-63
2022/05/20 21:55:54;;;;;;;;;;;;;;;;;;6154055;23;20333;-63
2022/05/20 21:58:20;;;;;;;;;;;;;;;;;;6178578;23;19901;-63
2022/05/20 22:08:59;;;;;;;;;;;;;;;;;;6178785;23;20033;-64
2022/05/20 22:11:25;;;;;;;;;;;;;;;;;;6179409;23;20342;-63
2022/05/20 22:13:51;;;;;;;;;;;;;;;;;;6179135;23;19900;-63
2022/05/20 22:16:17;;;;;;;;;;;;;;;;;;6153638;23;19900;-63
2022/05/20 22:18:43;;;;;;;;;;;;;;;;;;6153343;23;19979;-63
2022/05/20 22:21:09;;;;;;;;;;;;;;;;;;6191742;23;19899;-63
2022/05/20 22:23:35;;;;;;;;;;;;;;;;;;6242647;23;19907;-64
2022/05/20 22:26:00;;;;;;;;;;;;;;;;;;6242638;23;19907;-64
2022/05/20 22:28:26;;;;;;;;;;;;;;;;;;6214957;23;19903;-63
2022/05/20 22:30:52;;;;;;;;;;;;;;;;;;6241925;23;19907;-63
2022/05/20 22:33:19;;;;;;;;;;;;;;;;;;6215178;23;19899;-64
2022/05/20 22:35:45;;;;;;;;;;;;;;;;;;6215582;23;20315;-63
2022/05/20 22:38:11;;;;;;;;;;;;;;;;;;6214618;23;19899;-63
2022/05/20 22:40:37;;;;;;;;;;;;;;;;;;6242547;23;19986;-63
2022/05/20 22:43:03;;;;;;;;;;;;;;;;;;6214442;23;20005;-64
2022/05/20 22:45:29;;;;;;;;;;;;;;;;;;6214974;23;20451;-64
2022/05/20 22:47:55;;;;;;;;;;;;;;;;;;6241725;23;19982;-64
2022/05/20 22:50:20;;;;;;;;;;;;;;;;;;6241492;23;20277;-63
2022/05/20 22:52:46;;;;;;;;;;;;;;;;;;6241829;23;19912;-64
2022/05/20 22:57:57;;;;;;;;;;;;;;;;;;6242314;23;20333;-65
2022/05/20 23:00:23;;;;;;;;;;;;;;;;;;6214044;23;19900;-64
2022/05/20 23:02:49;;;;;;;;;;;;;;;;;;6242054;23;19903;-64
2022/05/20 23:05:15;;;;;;;;;;;;;;;;;;6242744;23;19899;-64